Time;durP1;ratioP1;P1;durP2;ratioP2;P2;SDS_P1;SDS_P2;PMS_P1;PMS_P2;Temp;Humidity;BMP_temperature;BMP_pressure;BME280_temperature;BME280_humidity;BME280_pressure;Samples;Min_cycle;Max_cycle;Signal;HPM_P1;HPM_P2
2024/01/18 00:01:51;;;;;;;0.57;0.50;;;10.60;66.00;;;;;;20530;6855;306964;-75
2024/01/18 00:04:16;;;;;;;0.40;0.40;;;10.70;65.60;;;;;;20690;6873;120925;-76
2024/01/18 00:06:42;;;;;;;0.50;0.50;;;10.70;65.00;;;;;;20693;6873;117682;-76
2024/01/18 00:09:07;;;;;;;0.40;0.40;;;10.50;66.20;;;;;;20676;6873;119498;-76
2024/01/18 00:11:33;;;;;;;0.50;0.50;;;10.40;66.80;;;;;;20513;6862;327941;-76
2024/01/18 00:14:00;;;;;;;0.50;0.50;;;10.50;66.10;;;;;;20722;6862;120291;-75
2024/01/18 00:16:25;;;;;;;0.50;0.50;;;10.50;66.10;;;;;;20738;6856;117603;-76
2024/01/18 00:18:50;;;;;;;0.45;0.45;;;10.40;66.70;;;;;;20488;6873;278739;-75
2024/01/18 00:21:16;;;;;;;0.40;0.40;;;10.50;66.20;;;;;;20453;6873;279920;-75
2024/01/18 00:23:42;;;;;;;0.50;0.50;;;11.00;63.90;;;;;;20521;6862;307843;-76
2024/01/18 00:26:09;;;;;;;0.40;0.40;;;11.00;64.00;;;;;;20741;6856;117259;-75
2024/01/18 00:28:33;;;;;;;0.60;0.60;;;10.90;64.10;;;;;;20742;6856;121092;-75
2024/01/18 00:30:59;;;;;;;0.80;0.60;;;10.70;64.90;;;;;;20536;6856;308466;-75
2024/01/18 00:33:25;;;;;;;0.50;0.50;;;10.70;64.90;;;;;;20515;6856;310187;-75
2024/01/18 00:35:50;;;;;;;0.47;0.47;;;10.90;64.00;;;;;;20737;6856;120111;-75
2024/01/18 00:38:16;;;;;;;0.93;0.60;;;10.90;64.00;;;;;;20531;6856;336631;-76
2024/01/18 00:40:42;;;;;;;0.40;0.40;;;10.90;63.70;;;;;;20748;6856;118300;-75
2024/01/18 00:43:07;;;;;;;0.80;0.77;;;10.80;63.90;;;;;;20734;6856;120438;-76
2024/01/18 00:45:32;;;;;;;0.50;0.50;;;10.60;64.70;;;;;;20525;6856;338982;-75
2024/01/18 00:47:58;;;;;;;0.53;0.53;;;10.60;64.50;;;;;;20535;6856;300213;-76
2024/01/18 00:50:24;;;;;;;0.40;0.40;;;10.80;63.70;;;;;;20747;6854;119370;-74
2024/01/18 00:52:49;;;;;;;0.67;0.67;;;10.80;63.80;;;;;;20538;6855;309394;-75
2024/01/18 00:55:16;;;;;;;0.68;0.57;;;11.00;63.00;;;;;;20464;6873;308751;-76
2024/01/18 00:57:43;;;;;;;0.40;0.40;;;11.00;62.90;;;;;;20696;6873;120539;-76
2024/01/18 01:00:08;;;;;;;0.60;0.60;;;10.90;63.20;;;;;;20485;6873;280896;-76
2024/01/18 01:02:35;;;;;;;0.43;0.43;;;10.80;63.60;;;;;;20725;6861;119384;-76
2024/01/18 01:05:02;;;;;;;0.50;0.50;;;10.80;63.60;;;;;;20681;6875;118601;-76
2024/01/18 01:07:28;;;;;;;0.70;0.60;;;10.60;64.40;;;;;;20462;6873;304530;-77
2024/01/18 01:09:54;;;;;;;0.50;0.50;;;10.60;64.40;;;;;;20514;6862;308087;-76
2024/01/18 01:12:19;;;;;;;0.40;0.40;;;10.90;63.70;;;;;;20743;6858;117937;-76
2024/01/18 01:14:46;;;;;;;0.47;0.47;;;10.60;64.40;;;;;;20688;6873;117545;-76
2024/01/18 01:17:11;;;;;;;0.50;0.50;;;10.60;64.40;;;;;;20663;6873;119859;-77
2024/01/18 01:19:37;;;;;;;0.40;0.40;;;10.40;65.30;;;;;;20517;6862;308636;-76
2024/01/18 01:22:04;;;;;;;0.60;0.60;;;10.50;65.40;;;;;;20531;6856;307574;-76
2024/01/18 01:24:30;;;;;;;0.60;0.60;;;11.00;63.80;;;;;;20536;6856;278662;-75
2024/01/18 01:26:56;;;;;;;0.50;0.50;;;11.00;63.50;;;;;;20511;6856;307530;-75
2024/01/18 01:29:21;;;;;;;0.47;0.40;;;11.20;62.70;;;;;;20729;6856;117322;-76
2024/01/18 01:31:48;;;;;;;0.50;0.50;;;11.10;62.80;;;;;;20532;6856;337915;-75
2024/01/18 01:34:12;;;;;;;0.55;0.55;;;11.10;62.90;;;;;;20523;6856;299104;-75
2024/01/18 01:36:38;;;;;;;0.40;0.40;;;11.20;62.50;;;;;;20730;6856;120269;-76
2024/01/18 01:39:03;;;;;;;0.50;0.43;;;11.00;62.70;;;;;;20752;6856;117697;-76
2024/01/18 01:41:29;;;;;;;0.47;0.47;;;10.70;63.70;;;;;;20727;6856;119267;-75
2024/01/18 01:43:55;;;;;;;0.60;0.60;;;10.50;64.50;;;;;;20531;6856;278461;-76
2024/01/18 01:46:20;;;;;;;0.33;0.33;;;10.50;64.70;;;;;;20731;6856;120960;-76
2024/01/18 01:48:46;;;;;;;0.50;0.50;;;10.50;64.60;;;;;;20751;6856;117243;-75
2024/01/18 01:51:12;;;;;;;0.40;0.40;;;10.40;65.00;;;;;;20511;6856;336673;-76
2024/01/18 01:53:38;;;;;;;0.60;0.60;;;10.40;65.00;;;;;;20749;6856;119540;-76
2024/01/18 01:56:03;;;;;;;0.50;0.50;;;10.30;64.70;;;;;;20531;6856;294348;-76
2024/01/18 01:58:29;;;;;;;0.90;0.40;;;10.40;65.00;;;;;;20728;6856;117379;-76
2024/01/18 02:00:54;;;;;;;0.50;0.50;;;10.30;64.70;;;;;;20475;6873;338641;-76
2024/01/18 02:03:21;;;;;;;0.63;0.53;;;10.30;64.80;;;;;;20665;6871;117431;-75
2024/01/18 02:05:48;;;;;;;1.13;0.63;;;10.30;64.80;;;;;;20478;6873;306374;-76
2024/01/18 02:08:13;;;;;;;0.57;0.57;;;10.30;64.70;;;;;;20523;6861;279257;-76
2024/01/18 02:10:39;;;;;;;0.63;0.63;;;10.60;64.20;;;;;;20721;6858;118237;-76
2024/01/18 02:13:04;;;;;;;0.50;0.50;;;10.40;64.00;;;;;;20678;6873;117349;-76
2024/01/18 02:15:30;;;;;;;1.37;0.60;;;10.20;64.70;;;;;;20450;6873;316190;-76
2024/01/18 02:17:55;;;;;;;0.83;0.57;;;10.20;64.80;;;;;;20676;6873;117330;-76
2024/01/18 02:20:23;;;;;;;0.60;0.60;;;10.20;64.80;;;;;;20474;6873;337893;-76
2024/01/18 02:22:49;;;;;;;1.13;0.73;;;10.20;64.70;;;;;;20678;6873;117843;-76
2024/01/18 02:25:20;;;;;;;1.17;0.50;;;10.10;64.70;;;;;;20661;6873;125673;-77
2024/01/18 02:27:48;;;;;;;0.63;0.63;;;9.90;66.50;;;;;;20450;6873;308442;-76
2024/01/18 02:30:13;;;;;;;0.60;0.60;;;9.90;66.50;;;;;;20700;6873;117606;-76
2024/01/18 02:32:39;;;;;;;0.62;0.62;;;9.90;66.50;;;;;;20507;6862;279026;-76
2024/01/18 02:35:06;;;;;;;0.77;0.77;;;10.00;65.40;;;;;;20688;6873;117730;-76
2024/01/18 02:37:31;;;;;;;0.77;0.70;;;10.00;65.50;;;;;;20511;6862;307329;-77
2024/01/18 02:39:57;;;;;;;0.70;0.70;;;10.00;65.60;;;;;;20748;6856;117144;-76
2024/01/18 02:42:22;;;;;;;0.80;0.70;;;10.00;65.90;;;;;;20745;6856;117848;-76
2024/01/18 02:44:52;;;;;;;1.07;0.70;;;9.90;67.70;;;;;;20743;6856;119354;-76
2024/01/18 02:47:18;;;;;;;1.33;0.50;;;9.80;68.70;;;;;;20723;6856;119370;-77
2024/01/18 02:49:45;;;;;;;0.80;0.80;;;9.70;69.40;;;;;;20524;6858;308003;-74
2024/01/18 02:52:11;;;;;;;1.10;0.60;;;9.80;69.50;;;;;;20697;6873;119781;-76
2024/01/18 02:54:36;;;;;;;1.30;0.60;;;9.90;69.20;;;;;;20691;6873;119343;-76
2024/01/18 02:57:03;;;;;;;0.97;0.83;;;9.90;69.70;;;;;;20481;6873;314033;-76
2024/01/18 02:59:29;;;;;;;0.70;0.70;;;10.10;68.70;;;;;;20675;6873;119004;-76
2024/01/18 03:01:54;;;;;;;0.77;0.60;;;10.10;68.20;;;;;;20727;6862;119897;-76
2024/01/18 03:04:20;;;;;;;0.90;0.70;;;10.00;68.40;;;;;;20529;6858;307370;-76
2024/01/18 03:06:45;;;;;;;0.75;0.75;;;10.10;68.20;;;;;;20480;6873;337969;-76
2024/01/18 03:09:12;;;;;;;0.80;0.80;;;10.50;67.30;;;;;;20681;6873;119527;-77
2024/01/18 03:11:36;;;;;;;1.45;0.90;;;10.50;66.90;;;;;;20474;6873;309739;-77
2024/01/18 03:14:03;;;;;;;0.87;0.60;;;10.50;67.20;;;;;;20694;6871;119490;-76
2024/01/18 03:16:28;;;;;;;1.30;0.70;;;10.50;66.70;;;;;;20484;6873;280549;-76
2024/01/18 03:18:54;;;;;;;1.50;0.77;;;10.60;66.90;;;;;;20485;6873;279092;-76
2024/01/18 03:21:19;;;;;;;1.10;0.77;;;10.80;66.30;;;;;;20684;6873;127253;-76
2024/01/18 03:23:45;;;;;;;1.10;0.83;;;10.70;65.90;;;;;;20484;6873;288813;-74
2024/01/18 03:26:12;;;;;;;1.52;0.88;;;10.80;66.20;;;;;;20474;6873;279443;-74
2024/01/18 03:28:36;;;;;;;0.83;0.67;;;10.90;65.20;;;;;;20697;6873;119961;-76
2024/01/18 03:31:02;;;;;;;2.00;0.90;;;10.70;65.10;;;;;;20475;6873;338096;-76
2024/01/18 03:33:27;;;;;;;1.27;0.70;;;10.70;65.50;;;;;;20673;6873;120663;-75
2024/01/18 03:35:53;;;;;;;1.50;0.80;;;10.60;65.80;;;;;;20484;6873;289943;-75
2024/01/18 03:38:18;;;;;;;1.43;0.80;;;10.60;66.00;;;;;;20696;6873;117870;-76
2024/01/18 03:40:44;;;;;;;1.23;0.60;;;10.50;66.20;;;;;;20691;6873;120460;-75
2024/01/18 03:43:10;;;;;;;0.80;0.70;;;10.40;68.00;;;;;;20447;6873;337743;-75
2024/01/18 03:45:37;;;;;;;1.37;0.80;;;10.60;67.80;;;;;;20470;6873;328331;-75
2024/01/18 03:48:02;;;;;;;3.67;0.90;;;10.60;67.80;;;;;;20533;6862;307934;-75
2024/01/18 03:50:28;;;;;;;1.70;0.60;;;10.90;66.20;;;;;;20746;6856;117962;-75
2024/01/18 03:52:53;;;;;;;1.27;0.73;;;10.80;65.90;;;;;;20742;6856;119506;-75
2024/01/18 03:55:21;;;;;;;1.70;0.80;;;10.60;66.60;;;;;;20506;6856;310485;-76
2024/01/18 03:57:46;;;;;;;1.93;0.80;;;10.60;66.90;;;;;;20534;6856;278782;-75
2024/01/18 04:00:12;;;;;;;1.97;0.80;;;11.00;65.40;;;;;;20529;6856;309623;-75
2024/01/18 04:02:38;;;;;;;1.60;0.80;;;11.00;65.40;;;;;;20528;6856;308646;-75
2024/01/18 04:05:04;;;;;;;1.43;0.80;;;11.20;64.60;;;;;;20524;6856;337356;-75
2024/01/18 04:07:29;;;;;;;2.17;1.00;;;11.30;63.90;;;;;;20658;6873;117412;-76
2024/01/18 04:09:56;;;;;;;1.70;0.70;;;11.10;64.00;;;;;;20698;6873;117289;-75
2024/01/18 04:12:22;;;;;;;2.13;0.80;;;10.80;65.00;;;;;;20678;6873;119564;-76
2024/01/18 04:14:47;;;;;;;0.70;0.70;;;10.50;66.00;;;;;;20689;6873;120435;-75
2024/01/18 04:17:13;;;;;;;3.03;0.90;;;10.30;66.90;;;;;;20721;6858;119472;-76
2024/01/18 04:19:40;;;;;;;1.80;0.88;;;10.10;67.60;;;;;;20460;6873;342593;-76
2024/01/18 04:22:05;;;;;;;1.17;0.60;;;10.30;67.80;;;;;;20658;6862;117120;-76
2024/01/18 04:24:31;;;;;;;1.65;0.50;;;10.30;67.50;;;;;;20679;6860;120651;-76
2024/01/18 04:26:57;;;;;;;3.37;0.95;;;10.10;68.00;;;;;;20493;6861;337172;-77
2024/01/18 04:29:23;;;;;;;2.00;0.77;;;10.20;68.00;;;;;;20679;6855;117952;-76
2024/01/18 04:31:48;;;;;;;1.50;0.90;;;10.30;67.90;;;;;;20493;6856;340239;-76
2024/01/18 04:34:13;;;;;;;2.80;0.70;;;10.40;67.80;;;;;;20723;6856;117307;-76
2024/01/18 04:36:39;;;;;;;1.70;0.80;;;10.40;67.60;;;;;;20513;6856;314539;-76
2024/01/18 04:39:05;;;;;;;2.05;0.90;;;10.50;67.50;;;;;;20518;6856;308327;-76
2024/01/18 04:41:30;;;;;;;2.03;0.70;;;10.80;66.80;;;;;;20688;6856;118107;-77
2024/01/18 04:43:56;;;;;;;0.80;0.80;;;10.50;67.70;;;;;;20727;6856;117754;-76
2024/01/18 04:46:23;;;;;;;2.37;0.90;;;10.50;67.10;;;;;;20528;6856;307535;-76
2024/01/18 04:48:47;;;;;;;1.25;0.80;;;10.60;67.30;;;;;;20536;6856;279595;-76
2024/01/18 04:51:14;;;;;;;1.63;0.87;;;11.00;65.40;;;;;;20512;6856;337219;-77
2024/01/18 04:53:39;;;;;;;1.63;1.10;;;11.00;65.30;;;;;;20533;6856;332499;-76
2024/01/18 04:56:05;;;;;;;2.80;0.77;;;11.20;64.60;;;;;;20487;6873;279115;-76
2024/01/18 04:58:32;;;;;;;3.30;0.90;;;11.40;64.00;;;;;;20479;6873;309561;-76
2024/01/18 05:00:57;;;;;;;0.70;0.70;;;11.40;63.30;;;;;;20690;6873;117888;-76
2024/01/18 05:03:23;;;;;;;2.55;0.95;;;11.20;63.60;;;;;;20465;6873;281028;-77
2024/01/18 05:05:50;;;;;;;1.77;0.67;;;11.10;63.80;;;;;;20718;6862;118085;-77
2024/01/18 05:08:16;;;;;;;1.87;0.70;;;11.00;64.30;;;;;;20520;6862;328281;-77
2024/01/18 05:10:41;;;;;;;1.45;0.80;;;10.90;64.60;;;;;;20523;6857;335887;-76
2024/01/18 05:13:07;;;;;;;0.60;0.60;;;11.10;64.30;;;;;;20710;6857;118857;-76
2024/01/18 05:15:32;;;;;;;1.57;0.60;;;10.90;64.30;;;;;;20675;6873;117541;-75
2024/01/18 05:17:59;;;;;;;1.23;0.82;;;10.70;65.30;;;;;;20475;6873;341068;-76
2024/01/18 05:20:24;;;;;;;0.70;0.60;;;10.60;66.10;;;;;;20711;6862;119062;-75
2024/01/18 05:22:50;;;;;;;1.90;0.93;;;10.60;66.10;;;;;;20515;6862;280361;-78
2024/01/18 05:25:15;;;;;;;1.13;0.50;;;10.70;66.40;;;;;;20712;6856;118939;-77
2024/01/18 05:27:41;;;;;;;1.93;0.70;;;10.60;66.40;;;;;;20744;6856;117388;-74
2024/01/18 05:30:07;;;;;;;0.97;0.60;;;10.40;67.20;;;;;;20739;6858;117260;-75
2024/01/18 05:32:32;;;;;;;1.00;0.70;;;10.20;68.00;;;;;;20685;6873;119015;-74
2024/01/18 05:34:58;;;;;;;1.80;0.88;;;10.10;68.80;;;;;;20466;6873;311412;-76
2024/01/18 05:37:24;;;;;;;1.23;0.77;;;10.30;68.40;;;;;;20680;6871;118917;-75
2024/01/18 05:39:53;;;;;;;1.67;0.73;;;10.20;68.70;;;;;;20519;6861;279319;-76
2024/01/18 05:42:32;;;;;;;;;;;;;;;;;;;;;
2024/01/18 05:44:44;;;;;;;0.80;0.60;;;10.40;68.60;;;;;;20589;6873;117950;-76
2024/01/18 05:47:09;;;;;;;1.30;0.80;;;10.20;69.40;;;;;;20673;6873;119466;-75
2024/01/18 05:49:35;;;;;;;1.37;0.90;;;10.10;69.60;;;;;;20483;6873;337715;-75
2024/01/18 05:52:00;;;;;;;3.58;1.17;;;10.20;70.00;;;;;;20515;6861;279336;-75
2024/01/18 05:54:26;;;;;;;4.27;1.20;;;10.50;68.90;;;;;;20531;6858;308809;-76
2024/01/18 05:56:51;;;;;;;1.20;0.70;;;10.70;67.90;;;;;;20690;6873;117306;-76
2024/01/18 05:59:17;;;;;;;0.77;0.77;;;10.70;67.50;;;;;;20604;6873;117433;-75
2024/01/18 06:01:43;;;;;;;1.58;0.75;;;10.50;68.20;;;;;;20570;6873;117470;-77
2024/01/18 06:04:08;;;;;;;2.07;0.90;;;10.20;69.00;;;;;;20441;6873;340052;-77
2024/01/18 06:06:34;;;;;;;3.28;1.20;;;10.30;69.50;;;;;;20474;6873;279472;-76
2024/01/18 06:08:59;;;;;;;1.53;0.97;;;10.50;68.80;;;;;;20680;6873;117462;-75
2024/01/18 06:11:26;;;;;;;1.60;0.93;;;10.40;69.10;;;;;;20626;6873;120048;-74
2024/01/18 06:13:51;;;;;;;0.93;0.80;;;10.40;69.10;;;;;;20685;6873;67622;-77
2024/01/18 06:16:23;;;;;;;4.05;1.23;;;10.10;69.70;;;;;;20458;6873;280982;-81
2024/01/18 06:18:50;;;;;;;2.03;0.93;;;10.20;70.10;;;;;;20695;6873;117787;-76
2024/01/18 06:21:15;;;;;;;2.80;1.10;;;10.20;69.50;;;;;;20465;6873;308620;-77
2024/01/18 06:23:42;;;;;;;2.97;1.23;;;10.30;69.50;;;;;;20698;6873;117841;-76
2024/01/18 06:26:07;;;;;;;2.60;1.10;;;10.30;69.10;;;;;;20687;6873;117206;-77
2024/01/18 06:28:33;;;;;;;3.95;1.45;;;10.10;69.60;;;;;;20461;6876;309690;-76
2024/01/18 06:30:59;;;;;;;2.07;1.20;;;10.20;69.90;;;;;;20528;6856;323979;-77
2024/01/18 06:33:26;;;;;;;1.55;1.25;;;10.50;68.90;;;;;;20721;6856;120391;-76
2024/01/18 06:35:50;;;;;;;1.90;1.43;;;10.50;68.40;;;;;;20520;6856;308923;-77
2024/01/18 06:38:16;;;;;;;1.30;1.20;;;10.50;68.40;;;;;;20746;6856;118180;-76
2024/01/18 06:40:42;;;;;;;2.50;1.50;;;10.40;68.10;;;;;;20532;6856;279066;-76
2024/01/18 06:43:07;;;;;;;3.05;1.60;;;10.50;68.30;;;;;;20538;6856;308475;-82
2024/01/18 06:45:33;;;;;;;1.95;1.35;;;10.70;67.50;;;;;;20774;6856;116559;-82
2024/01/18 06:47:59;;;;;;;3.03;1.40;;;10.60;68.00;;;;;;20771;6854;117208;-85
2024/01/18 06:50:25;;;;;;;2.00;1.20;;;10.20;68.90;;;;;;20780;6855;116278;-82
2024/01/18 06:52:51;;;;;;;3.00;1.50;;;10.20;68.90;;;;;;20561;6855;337844;-82
2024/01/18 06:55:16;;;;;;;1.30;1.20;;;10.30;69.30;;;;;;20542;6856;279091;-83
2024/01/18 06:57:41;;;;;;;1.20;1.10;;;10.60;68.60;;;;;;20541;6856;337604;-82
2024/01/18 07:00:07;;;;;;;0.75;0.75;;;10.80;67.20;;;;;;20738;6856;117785;-83
2024/01/18 07:02:34;;;;;;;1.73;0.83;;;10.70;67.10;;;;;;20499;6873;308605;-83
2024/01/18 07:05:01;;;;;;;1.47;0.80;;;10.70;67.10;;;;;;20691;6873;117952;-82
2024/01/18 07:07:27;;;;;;;1.30;0.80;;;10.60;67.30;;;;;;20726;6861;194297;-82
2024/01/18 07:09:55;;;;;;;0.50;0.50;;;10.40;68.20;;;;;;20731;6862;117327;-81
2024/01/18 07:12:20;;;;;;;0.60;0.60;;;10.20;69.00;;;;;;20730;6862;117754;-84
2024/01/18 07:14:46;;;;;;;1.00;0.80;;;10.10;70.00;;;;;;20534;6862;279476;-84
2024/01/18 07:17:12;;;;;;;0.90;0.80;;;10.10;69.70;;;;;;20479;6873;309631;-84
2024/01/18 07:19:38;;;;;;;0.63;0.60;;;10.40;68.50;;;;;;20692;6873;118513;-78
2024/01/18 07:22:03;;;;;;;1.23;0.80;;;10.40;68.10;;;;;;20692;6873;117403;-77
2024/01/18 07:24:30;;;;;;;1.67;0.90;;;10.20;68.30;;;;;;20508;6862;333227;-77
2024/01/18 07:26:56;;;;;;;1.00;0.83;;;10.30;68.00;;;;;;20692;6862;120326;-77
2024/01/18 07:29:21;;;;;;;1.37;0.90;;;10.20;67.90;;;;;;20686;6862;119853;-76
2024/01/18 07:31:49;;;;;;;2.00;0.87;;;10.00;68.50;;;;;;20526;6856;337778;-76
2024/01/18 07:34:16;;;;;;;0.70;0.70;;;10.10;68.20;;;;;;20502;6856;319301;-76
2024/01/18 07:36:41;;;;;;;0.93;0.90;;;10.30;66.90;;;;;;20463;6873;280338;-76
2024/01/18 07:39:07;;;;;;;1.25;0.90;;;10.60;66.10;;;;;;20673;6873;117353;-77
2024/01/18 07:41:33;;;;;;;0.97;0.70;;;10.30;67.00;;;;;;20560;6862;117781;-76
2024/01/18 07:43:58;;;;;;;0.70;0.70;;;10.30;67.00;;;;;;20698;6862;117387;-76
2024/01/18 07:46:24;;;;;;;0.70;0.70;;;10.10;67.80;;;;;;20506;6862;278787;-76
2024/01/18 07:48:50;;;;;;;0.50;0.50;;;10.20;67.60;;;;;;20739;6856;117238;-76
2024/01/18 07:51:16;;;;;;;0.62;0.60;;;10.10;67.50;;;;;;20723;6856;118915;-77
2024/01/18 07:53:41;;;;;;;0.80;0.70;;;10.00;68.30;;;;;;20528;6856;278001;-76
2024/01/18 07:56:07;;;;;;;3.10;0.60;;;10.10;67.90;;;;;;20685;6873;117432;-77
2024/01/18 07:58:33;;;;;;;0.70;0.63;;;10.10;67.90;;;;;;20688;6873;118905;-76
2024/01/18 08:00:59;;;;;;;0.73;0.57;;;9.90;70.00;;;;;;20725;6860;116875;-76
2024/01/18 08:03:27;;;;;;;1.10;0.60;;;9.80;70.00;;;;;;20715;6855;117091;-77
2024/01/18 08:05:52;;;;;;;1.37;0.73;;;9.70;70.50;;;;;;20682;6873;117696;-76
2024/01/18 08:08:17;;;;;;;0.73;0.70;;;9.60;71.00;;;;;;20693;6873;117151;-76
2024/01/18 08:10:43;;;;;;;0.50;0.50;;;9.50;71.50;;;;;;20729;6861;117330;-76
2024/01/18 08:13:10;;;;;;;1.20;1.00;;;9.50;72.00;;;;;;20491;6861;338322;-78
2024/01/18 08:15:35;;;;;;;1.03;0.70;;;9.60;71.30;;;;;;20510;6861;308250;-76
2024/01/18 08:18:01;;;;;;;0.70;0.70;;;10.00;68.50;;;;;;20515;6861;312908;-77
2024/01/18 08:20:27;;;;;;;0.65;0.65;;;10.60;66.00;;;;;;20519;6862;280754;-77
2024/01/18 08:22:54;;;;;;;2.10;0.70;;;10.60;66.00;;;;;;20514;6862;278948;-77
2024/01/18 08:25:20;;;;;;;0.73;0.70;;;10.80;64.80;;;;;;20476;6862;278816;-77
2024/01/18 08:27:46;;;;;;;3.43;0.70;;;11.10;63.40;;;;;;20521;6862;279083;-77
2024/01/18 08:30:12;;;;;;;0.70;0.70;;;11.10;63.40;;;;;;20477;6873;309014;-76
2024/01/18 08:32:38;;;;;;;0.80;0.67;;;11.30;62.90;;;;;;20469;6873;295649;-76
2024/01/18 08:35:07;;;;;;;1.30;0.80;;;11.30;63.00;;;;;;20716;6862;117726;-76
2024/01/18 08:37:30;;;;;;;0.80;0.70;;;11.10;63.20;;;;;;20640;6873;119961;-75
2024/01/18 08:39:55;;;;;;;0.60;0.60;;;10.80;64.20;;;;;;20693;6873;118475;-75
2024/01/18 08:42:21;;;;;;;0.50;0.50;;;10.50;66.10;;;;;;20510;6862;311356;-75
2024/01/18 08:44:47;;;;;;;1.50;0.77;;;10.50;66.00;;;;;;20737;6856;117474;-75
2024/01/18 08:47:13;;;;;;;0.70;0.60;;;10.50;66.20;;;;;;20515;6856;308931;-76
2024/01/18 08:49:39;;;;;;;0.70;0.60;;;10.60;66.50;;;;;;20742;6856;117881;-76
2024/01/18 08:52:04;;;;;;;0.57;0.57;;;10.60;66.40;;;;;;20739;6856;117309;-75
2024/01/18 08:54:31;;;;;;;2.53;0.73;;;10.50;67.00;;;;;;20526;6856;307043;-77
2024/01/18 08:56:56;;;;;;;0.77;0.57;;;10.50;67.20;;;;;;20737;6856;117256;-76
2024/01/18 08:59:22;;;;;;;0.50;0.50;;;10.60;67.20;;;;;;20717;6856;118789;-75
2024/01/18 09:01:47;;;;;;;1.80;0.70;;;10.40;67.70;;;;;;20479;6873;280235;-75
2024/01/18 09:04:12;;;;;;;0.40;0.40;;;10.50;68.20;;;;;;20483;6873;280778;-75
2024/01/18 09:06:38;;;;;;;0.60;0.57;;;10.80;67.20;;;;;;20694;6873;117348;-76
2024/01/18 09:09:04;;;;;;;2.10;0.33;;;10.80;66.90;;;;;;20727;6862;120424;-76
2024/01/18 09:11:29;;;;;;;0.60;0.60;;;10.70;67.50;;;;;;20706;6860;119269;-75
2024/01/18 09:13:55;;;;;;;0.80;0.80;;;10.40;69.00;;;;;;20732;6855;116998;-75
2024/01/18 09:16:21;;;;;;;1.70;1.60;;;10.40;69.00;;;;;;20742;6855;117147;-75
2024/01/18 09:18:46;;;;;;;4.18;3.97;;;10.30;69.40;;;;;;20534;6856;278474;-75
2024/01/18 09:21:12;;;;;;;1.00;0.97;;;10.50;69.50;;;;;;20508;6856;337452;-75
2024/01/18 09:23:38;;;;;;;1.20;1.20;;;10.80;68.40;;;;;;20540;6856;278474;-75
2024/01/18 09:26:03;;;;;;;0.83;0.80;;;11.10;67.10;;;;;;20511;6856;309271;-75
2024/01/18 09:28:29;;;;;;;1.63;1.37;;;11.40;65.60;;;;;;20531;6856;308472;-75
2024/01/18 09:30:54;;;;;;;2.53;2.43;;;11.60;64.60;;;;;;20473;6873;282311;-75
2024/01/18 09:33:20;;;;;;;1.20;1.10;;;11.70;63.80;;;;;;20459;6873;279209;-75
2024/01/18 09:35:46;;;;;;;1.30;1.20;;;11.80;63.30;;;;;;20510;6862;309043;-75
2024/01/18 09:38:13;;;;;;;2.17;2.03;;;11.90;63.00;;;;;;20730;6862;117670;-76
2024/01/18 09:40:39;;;;;;;2.22;2.12;;;11.80;63.60;;;;;;20479;6873;338439;-76
2024/01/18 09:43:07;;;;;;;1.70;1.60;;;11.80;64.20;;;;;;20674;6873;117430;-76
2024/01/18 09:45:29;;;;;;;1.50;1.40;;;11.70;64.60;;;;;;20446;6873;311477;-76
2024/01/18 09:47:55;;;;;;;2.60;2.50;;;11.70;64.80;;;;;;20479;6873;278727;-76
2024/01/18 09:50:20;;;;;;;1.93;1.83;;;11.90;64.20;;;;;;20721;6862;117493;-75
2024/01/18 09:52:46;;;;;;;1.60;0.63;;;11.90;64.40;;;;;;20713;6862;117433;-75
2024/01/18 09:55:11;;;;;;;2.35;1.77;;;11.70;65.00;;;;;;20696;6862;117831;-76
2024/01/18 09:57:38;;;;;;;1.55;1.45;;;11.50;66.00;;;;;;20535;6856;337160;-76
2024/01/18 10:00:04;;;;;;;2.60;2.50;;;11.50;66.50;;;;;;20684;6873;117357;-75
2024/01/18 10:02:29;;;;;;;2.20;2.10;;;11.40;65.50;;;;;;20470;6873;296402;-75
2024/01/18 10:05:00;;;;;;;2.00;1.90;;;11.30;60.60;;;;;;20476;6873;280461;-75
2024/01/18 10:07:21;;;;;;;2.00;1.90;;;11.20;57.30;;;;;;20433;6873;323437;-75
2024/01/18 10:09:47;;;;;;;2.10;2.00;;;11.00;55.50;;;;;;20498;6862;337472;-75
2024/01/18 10:12:12;;;;;;;3.73;3.43;;;10.80;54.70;;;;;;20724;6862;117939;-77
2024/01/18 10:14:44;;;;;;;1.23;1.23;;;10.10;55.10;;;;;;20740;6856;117276;-77
2024/01/18 10:17:09;;;;;;;1.40;1.40;;;9.40;57.30;;;;;;20657;6873;117509;-76
2024/01/18 10:19:35;;;;;;;1.20;1.20;;;8.80;58.30;;;;;;20665;6873;117825;-77
2024/01/18 10:22:00;;;;;;;1.20;1.20;;;8.30;59.60;;;;;;20475;6873;309742;-76
2024/01/18 10:24:26;;;;;;;1.40;1.40;;;8.10;59.30;;;;;;20689;6871;117132;-76
2024/01/18 10:27:03;;;;;;;1.40;1.30;;;7.80;59.20;;;;;;20481;6873;308806;-76
2024/01/18 10:29:35;;;;;;;1.10;1.10;;;7.80;59.30;;;;;;20461;6873;309794;-76
2024/01/18 10:32:01;;;;;;;0.80;0.80;;;7.80;59.30;;;;;;20472;6873;279259;-75
2024/01/18 10:34:27;;;;;;;0.80;0.80;;;7.90;58.20;;;;;;20503;6861;309715;-76
2024/01/18 10:36:52;;;;;;;0.63;0.63;;;7.80;57.00;;;;;;20725;6861;117034;-76
2024/01/18 10:39:18;;;;;;;0.60;0.60;;;7.40;57.30;;;;;;20490;6861;325997;-76
2024/01/18 10:41:44;;;;;;;0.70;0.70;;;7.10;57.70;;;;;;20740;6856;117885;-75
2024/01/18 10:44:10;;;;;;;0.80;0.80;;;6.80;58.20;;;;;;20529;6856;339295;-76
2024/01/18 10:46:36;;;;;;;0.50;0.50;;;6.80;58.70;;;;;;20522;6856;278019;-75
2024/01/18 10:49:02;;;;;;;0.70;0.70;;;6.80;58.70;;;;;;20682;6873;119314;-75
2024/01/18 10:51:28;;;;;;;0.83;0.70;;;6.20;60.10;;;;;;20671;6873;117416;-75
2024/01/18 10:53:54;;;;;;;0.60;0.60;;;6.20;60.10;;;;;;20695;6873;117223;-75
2024/01/18 10:56:22;;;;;;;1.00;1.00;;;5.90;60.60;;;;;;20519;6862;278807;-75
2024/01/18 10:58:46;;;;;;;0.80;0.80;;;6.30;62.50;;;;;;20477;6873;279655;-75
2024/01/18 11:01:11;;;;;;;1.03;1.03;;;6.30;62.50;;;;;;20689;6862;119915;-75
2024/01/18 11:03:37;;;;;;;0.70;0.70;;;6.30;62.60;;;;;;20526;6856;308360;-76
2024/01/18 11:06:08;;;;;;;1.10;1.10;;;6.30;61.70;;;;;;20739;6856;117431;-76
2024/01/18 11:08:28;;;;;;;0.80;0.80;;;6.20;61.50;;;;;;20466;6873;309236;-76
2024/01/18 11:10:55;;;;;;;0.50;0.50;;;6.40;59.80;;;;;;20472;6873;326287;-76
2024/01/18 11:13:20;;;;;;;0.80;0.80;;;6.40;59.80;;;;;;20500;6862;279189;-77
2024/01/18 11:15:47;;;;;;;0.70;0.70;;;6.50;59.60;;;;;;20688;6873;117414;-75
2024/01/18 11:18:11;;;;;;;0.80;0.80;;;6.30;59.80;;;;;;20477;6873;307531;-75
2024/01/18 11:21:08;;;;;;;0.87;0.87;;;6.20;60.00;;;;;;20470;6873;337882;-76
2024/01/18 11:23:34;;;;;;;0.80;0.80;;;6.30;60.90;;;;;;20483;6873;322418;-75
2024/01/18 11:25:59;;;;;;;0.60;0.60;;;6.40;60.00;;;;;;20712;6862;119721;-74
2024/01/18 11:28:28;;;;;;;0.60;0.60;;;6.20;60.00;;;;;;20737;6856;121075;-75
2024/01/18 11:30:55;;;;;;;0.80;0.80;;;5.90;60.90;;;;;;20685;6873;118127;-76
2024/01/18 11:33:22;;;;;;;0.90;0.90;;;5.60;62.40;;;;;;20480;6873;308753;-76
2024/01/18 11:35:48;;;;;;;0.80;0.80;;;5.70;62.80;;;;;;20684;6871;117194;-76
2024/01/18 11:38:18;;;;;;;0.60;0.60;;;5.70;62.40;;;;;;20690;6873;117624;-76
2024/01/18 11:40:44;;;;;;;1.03;1.03;;;5.50;62.00;;;;;;20719;6861;120404;-76
2024/01/18 11:43:13;;;;;;;0.80;0.80;;;5.10;62.20;;;;;;20721;6856;149057;-76
2024/01/18 11:45:39;;;;;;;0.93;0.63;;;5.20;61.50;;;;;;20547;6858;277821;-79
2024/01/18 11:48:05;;;;;;;1.93;1.93;;;5.20;61.40;;;;;;20696;6873;117133;-78
2024/01/18 11:50:30;;;;;;;1.07;1.07;;;5.20;60.90;;;;;;20523;6873;308975;-80
2024/01/18 11:52:56;;;;;;;1.30;1.30;;;5.20;60.30;;;;;;20550;6861;309830;-80
2024/01/18 11:55:21;;;;;;;1.37;1.37;;;5.50;59.50;;;;;;20747;6862;122035;-80
2024/01/18 11:57:48;;;;;;;3.90;3.70;;;5.30;59.30;;;;;;20549;6862;308184;-81
2024/01/18 12:00:13;;;;;;;3.65;3.22;;;5.30;59.70;;;;;;20763;6862;116199;-80
2024/01/18 12:02:38;;;;;;;1.70;1.60;;;5.30;59.70;;;;;;20769;6862;116214;-80
2024/01/18 12:05:04;;;;;;;1.47;1.37;;;5.00;60.00;;;;;;20550;6856;336014;-78
2024/01/18 12:07:32;;;;;;;1.40;1.40;;;5.10;60.20;;;;;;20741;6856;117280;-81
2024/01/18 12:09:57;;;;;;;2.20;2.10;;;5.00;60.30;;;;;;20553;6856;337118;-79
2024/01/18 12:12:22;;;;;;;1.90;1.80;;;5.10;60.50;;;;;;20533;6856;278541;-76
2024/01/18 12:14:48;;;;;;;2.42;2.28;;;5.60;59.60;;;;;;20525;6856;279008;-76
2024/01/18 12:17:14;;;;;;;1.50;1.50;;;5.60;59.60;;;;;;20669;6873;120767;-77
2024/01/18 12:19:40;;;;;;;1.40;1.40;;;5.40;59.30;;;;;;20478;6873;308797;-76
2024/01/18 12:22:08;;;;;;;1.57;1.57;;;5.40;59.80;;;;;;20706;6873;67983;-81
2024/01/18 12:24:34;;;;;;;1.20;1.20;;;5.40;60.00;;;;;;20692;6873;118711;-75
2024/01/18 12:27:05;;;;;;;1.27;1.27;;;4.90;60.60;;;;;;20691;6873;117660;-77
2024/01/18 12:29:27;;;;;;;1.37;1.37;;;4.90;60.60;;;;;;20642;6873;117879;-76
2024/01/18 12:31:54;;;;;;;1.53;1.20;;;4.60;61.50;;;;;;20689;6873;117460;-76
2024/01/18 12:34:19;;;;;;;1.70;1.60;;;4.60;61.50;;;;;;20511;6862;306700;-76